Airfield :
LOGIN :

Register | Disclaimer

   EN    FR    IT 

 










Legend :    VFR   Marginal VFR   IFR   Intensive IFR   Very Intensive IFR
Visi :
Ceiling :
>= 8 km
>= 3000ft
5 to 8 km
1000 to 3000 ft
1500m to 5 km
500 to 1000 ft
800 to 1500m
200 to 500 ft
< 800m
< 200 ft
Symbols :   Thunderstorms  Fog  Heavy snow  Heavy precipitations  Wind > 20 kt
SIGMETs :     Misc.  Thunderstorms  Icing  Turbulence  Mountain Waves  Volcanic Ashes







- Airport Elevation : 681 ft
- IATA code : LBA
- Download approach charts


EGNM - Leeds Bradford

CURRENT METAR :
  • 211150Z 15007KT 120V210 9999 BKN020 17/13 Q1021

EXPIRED METARs :
  • 211120Z 15008KT 110V200 9999 BKN021 17/12 Q1021
  • 211050Z 14007KT 090V200 9999 SCT018 16/12 Q1021
  • 211020Z 14008KT 100V180 9999 SCT016 16/12 Q1021
  • 210950Z 14009KT 100V170 9999 SCT015 16/12 Q1021
  • 210920Z 13006KT 100V160 9999 FEW008 SCT012 15/12 Q1022

TAF TAF EGNM
Valid from the 21 at 12:00 until the 22 at 12:00 UTC


211108Z 2112/2212 15008KT 9999 SCT020
PROB40
TEMPO 2116/2122 7000 -RA BKN012
BECMG 2122/2201 6000 BKN008
TEMPO 2201/2209 3000 -RADZ BR BKN004
PROB30
TEMPO 2201/2208 0300 DZ FG BKN001
BECMG 2209/2212 9999 SCT015
ATIS : +44 113 250 9696 (x2489)
No reported NOTAMs for that airfield.



MET'MAP, your aeronautical weather chart ! - Copyright ORBIFLY December 2007 - Disclaimer

ORBIFLY MET'MAP TEAM :

Programming & Development : Alexandra Zaïnal
Concept & Development : Baudouin d'Aumeries
Co-Development & Prog : Marc-Olivier Méhu
Technical & hardware support : Manuel Goepfert

Contact : metmap@orbifly.com




SOURCES & CREDITS :

   NOAA